SBTT/TBT METAR and TAF weather

Enter ICAO airport designator
Station Type Date Time Source
SBTT METAR 2020/03/27 23:00 UTC NOAA

SBTT 272300Z 12002KT CAVOK 25/24 Q1005


Station Type Date Time Source
SBTT Decoded METAR 2020/03/27 23:00 UTC NOAA

Tabatinga, Brazil (SBTT) 03-40S 069-40W
Mar 27, 2020 - 07:00 PM EDT / 2020.03.27 2300 UTC
Wind: from the ESE (120 degrees) at 2 MPH (2 KT):0
Visibility: greater than 7 mile(s):0
Temperature: 77 F (25 C)
Dew Point: 75 F (24 C)
Relative Humidity: 94%
Pressure (altimeter): 29.68 in. Hg (1005 hPa)
ob: SBTT 272300Z 12002KT CAVOK 25/24 Q1005
cycle: 23

Station Type Date Time Source
SBTT TAF 2020/03/28 06:16 UTC NOAA

TAF SBTT 280300Z 2806/2906 10003KT 4000 BR BKN004 TN24/2811Z TX30/2818Z
BECMG 2813/2815 9999 NSW SCT005
BECMG 2817/2819 5000 RA SCT020 FEW025TCU
BECMG 2819/2821 3000 TSRA BKN015 FEW025CB
BECMG 2822/2824 03005KT 9999 NSW FEW020
RMK PFV

Example: see airport list